Time;durP1;ratioP1;P1;durP2;ratioP2;P2;SDS_P1;SDS_P2;PMS_P1;PMS_P2;Temp;Humidity;BMP_temperature;BMP_pressure;BME280_temperature;BME280_humidity;BME280_pressure;Samples;Min_cycle;Max_cycle;Signal;HPM_P1;HPM_P2
2022/01/09 00:01:01;;;;;;;4.57;1.50;;;;;;;19.00;52.38;94687.94;10298324;28;20456;-22
2022/01/09 00:06:02;;;;;;;3.65;1.48;;;;;;;19.02;52.28;94660.81;10289723;28;20544;-24
2022/01/09 00:11:02;;;;;;;5.20;1.80;;;;;;;19.00;52.29;94678.63;10289118;28;20561;-23
2022/01/09 00:16:03;;;;;;;2.50;1.67;;;;;;;19.01;52.41;94659.16;10312206;28;20072;-22
2022/01/09 00:21:06;;;;;;;2.78;1.70;;;;;;;18.98;52.38;94649.09;10307661;28;20049;-22
2022/01/09 00:26:07;;;;;;;3.08;1.80;;;;;;;19.00;52.40;94667.66;10288865;28;20049;-24
2022/01/09 00:31:08;;;;;;;4.70;1.83;;;;;;;19.00;52.31;94663.41;10288693;28;20038;-23
2022/01/09 00:36:08;;;;;;;1.83;1.37;;;;;;;18.99;52.48;94658.41;10288616;28;20041;-23
2022/01/09 00:41:09;;;;;;;3.53;1.60;;;;;;;18.96;52.47;94666.09;10288693;28;20043;-22
2022/01/09 00:46:09;;;;;;;3.15;1.65;;;;;;;18.97;52.47;94662.66;10288377;28;20074;-24
2022/01/09 00:51:10;;;;;;;4.65;1.70;;;;;;;18.97;52.56;94682.97;10288279;28;20039;-22
2022/01/09 00:56:10;;;;;;;3.00;1.60;;;;;;;18.99;52.30;94678.69;10287613;28;20100;-23
2022/01/09 01:01:11;;;;;;;4.07;1.50;;;;;;;18.98;52.33;94674.47;10287927;28;20046;-22
2022/01/09 01:06:13;;;;;;;3.85;1.50;;;;;;;18.98;52.29;94685.44;10287005;28;20035;-23
2022/01/09 01:11:13;;;;;;;3.05;1.13;;;;;;;18.99;52.54;94688.81;10287744;28;20042;-23
2022/01/09 01:16:13;;;;;;;4.27;1.73;;;;;;;19.00;52.28;94680.34;10312431;28;20484;-22
2022/01/09 01:21:14;;;;;;;1.33;1.10;;;;;;;19.00;52.25;94700.63;10304073;28;20035;-23
2022/01/09 01:26:14;;;;;;;2.28;1.50;;;;;;;18.99;52.39;94706.56;10287187;28;20039;-22
2022/01/09 01:31:15;;;;;;;1.53;1.33;;;;;;;19.02;52.33;94711.53;10287020;28;20042;-22
2022/01/09 01:36:15;;;;;;;2.53;1.48;;;;;;;18.98;52.30;94708.28;10287170;28;20043;-23
2022/01/09 01:41:16;;;;;;;1.92;1.15;;;;;;;19.03;52.14;94708.13;10287429;28;20043;-24
2022/01/09 01:46:16;;;;;;;1.95;1.33;;;;;;;19.01;52.24;94699.75;10287331;28;20517;-25
2022/01/09 01:51:20;;;;;;;4.25;1.58;;;;;;;19.02;52.36;94724.22;10309278;28;20120;-22
2022/01/09 01:56:21;;;;;;;3.25;1.42;;;;;;;19.00;52.47;94713.31;10326305;28;20044;-22
2022/01/09 02:01:21;;;;;;;2.83;1.17;;;;;;;18.98;52.57;94699.81;10297804;28;20061;-23
2022/01/09 02:06:22;;;;;;;2.77;1.33;;;;;;;18.98;52.23;94704.91;10286750;28;20102;-24
2022/01/09 02:11:23;;;;;;;1.50;1.30;;;;;;;18.96;52.31;94693.97;10286587;28;20296;-23
2022/01/09 02:16:24;;;;;;;2.13;1.23;;;;;;;18.98;52.61;94720.09;10311876;28;20062;-23
2022/01/09 02:21:26;;;;;;;3.20;1.20;;;;;;;19.00;52.45;94718.38;10300958;28;20066;-22
2022/01/09 02:26:26;;;;;;;3.30;1.75;;;;;;;19.01;52.36;94712.41;10282110;28;20038;-23
2022/01/09 02:31:27;;;;;;;4.60;1.45;;;;;;;18.98;52.55;94736.16;10284939;28;20421;-22
2022/01/09 02:36:27;;;;;;;2.57;1.20;;;;;;;18.95;52.70;94730.38;10290199;28;20034;-23
2022/01/09 02:41:28;;;;;;;3.97;1.30;;;;;;;18.98;52.40;94743.78;10293209;28;20121;-23
2022/01/09 02:46:45;;;;;;;3.78;1.30;;;;;;;18.97;52.76;94766.63;10292790;28;20077;-23
2022/01/09 02:51:46;;;;;;;3.60;1.10;;;;;;;18.96;52.74;94765.81;10292621;28;20026;-22
2022/01/09 02:56:47;;;;;;;2.55;1.10;;;;;;;18.98;52.69;94776.75;10291714;28;20042;-22
2022/01/09 03:01:47;;;;;;;3.83;1.25;;;;;;;18.95;52.62;94783.63;10290425;28;20450;-23
2022/01/09 03:06:47;;;;;;;4.97;1.50;;;;;;;18.97;53.10;94807.22;10288094;28;20057;-24
2022/01/09 03:11:49;;;;;;;2.20;1.27;;;;;;;18.95;52.72;94822.50;10291691;28;20277;-24
2022/01/09 03:16:50;;;;;;;2.33;1.10;;;;;;;18.98;52.70;94851.97;10321059;28;20380;-23
2022/01/09 03:21:50;;;;;;;1.67;0.93;;;;;;;18.98;52.63;94869.72;10303284;28;20045;-22
2022/01/09 03:26:51;;;;;;;3.50;1.23;;;;;;;18.98;52.63;94892.53;10291594;28;20290;-22
2022/01/09 03:31:51;;;;;;;3.00;1.50;;;;;;;18.97;52.63;94893.41;10291308;28;20408;-24
2022/01/09 03:36:51;;;;;;;3.87;1.07;;;;;;;18.97;52.62;94931.47;10290198;28;20508;-23
2022/01/09 03:41:54;;;;;;;3.35;1.20;;;;;;;18.96;52.50;94960.22;10291042;28;20482;-24
2022/01/09 03:46:56;;;;;;;4.30;1.25;;;;;;;18.98;52.54;94978.75;10290301;28;20133;-23
2022/01/09 03:51:58;;;;;;;5.25;2.25;;;;;;;18.94;52.79;94997.50;10318387;28;20445;-23
2022/01/09 03:56:58;;;;;;;1.65;1.00;;;;;;;18.98;52.65;95004.13;10329808;28;20034;-23
2022/01/09 04:01:59;;;;;;;3.07;1.20;;;;;;;18.97;52.66;95010.91;10294181;28;20035;-22
2022/01/09 04:06:59;;;;;;;1.40;1.00;;;;;;;18.96;52.70;95036.31;10289735;28;20433;-24
2022/01/09 04:12:03;;;;;;;5.00;0.97;;;;;;;18.94;52.64;95043.97;10290148;28;20271;-24
2022/01/09 04:17:06;;;;;;;3.00;1.00;;;;;;;18.94;52.75;95068.50;10321047;28;20042;-22
2022/01/09 04:22:06;;;;;;;2.00;1.20;;;;;;;18.94;52.55;95068.50;10288947;28;20070;-23
2022/01/09 04:27:07;;;;;;;2.17;1.00;;;;;;;18.95;52.64;95086.22;10289166;28;20081;-24
2022/01/09 04:32:08;;;;;;;2.22;0.95;;;;;;;18.94;52.67;95079.47;10288909;28;20027;-22
2022/01/09 04:37:08;;;;;;;3.38;1.15;;;;;;;18.94;52.58;95096.38;10288476;28;20046;-24
2022/01/09 04:42:09;;;;;;;2.20;1.50;;;;;;;18.95;52.54;95096.34;10288998;28;20049;-24
2022/01/09 04:47:14;;;;;;;3.08;1.02;;;;;;;18.93;52.66;95107.41;10287759;28;20294;-23
2022/01/09 04:52:19;;;;;;;1.67;1.00;;;;;;;18.94;52.49;95124.28;10288140;28;20038;-23
2022/01/09 04:57:19;;;;;;;2.00;0.88;;;;;;;18.95;52.47;95131.00;10287455;28;20035;-22
2022/01/09 05:02:19;;;;;;;3.17;0.93;;;;;;;18.95;52.55;95141.16;10288384;28;20035;-23
2022/01/09 05:07:20;;;;;;;1.47;0.80;;;;;;;18.99;52.51;95147.81;10287596;28;20041;-22
2022/01/09 05:12:20;;;;;;;1.80;0.90;;;;;;;18.98;52.49;95149.50;10287616;28;20115;-22
2022/01/09 05:17:20;;;;;;;3.40;1.87;;;;;;;19.01;52.45;95161.28;10321054;28;20285;-24
2022/01/09 05:22:21;;;;;;;2.53;1.00;;;;;;;19.00;52.50;95169.78;10295465;28;20053;-22
2022/01/09 05:27:22;;;;;;;1.53;1.13;;;;;;;19.02;52.42;95204.34;10287201;28;20047;-23
2022/01/09 05:32:22;;;;;;;2.20;0.85;;;;;;;19.00;52.54;95210.34;10286352;28;20034;-23
2022/01/09 05:37:22;;;;;;;2.07;1.17;;;;;;;19.00;52.36;95239.06;10286824;28;20520;-25
2022/01/09 05:42:23;;;;;;;1.97;0.83;;;;;;;19.00;52.37;95241.59;10287185;28;20129;-22
2022/01/09 05:47:23;;;;;;;1.97;0.80;;;;;;;19.00;52.46;95245.84;10286688;28;20330;-23
2022/01/09 05:52:23;;;;;;;1.27;0.83;;;;;;;18.99;52.47;95274.63;10287227;28;20092;-22
2022/01/09 05:57:24;;;;;;;1.23;0.80;;;;;;;19.02;52.41;95259.31;10286640;28;20055;-24
2022/01/09 06:02:24;;;;;;;1.23;0.70;;;;;;;19.00;52.50;95256.81;10286330;28;20481;-23
2022/01/09 06:07:25;;;;;;;1.40;0.93;;;;;;;19.00;52.52;95261.06;10286027;28;20122;-23
2022/01/09 06:12:25;;;;;;;2.60;1.50;;;;;;;18.97;52.60;95261.97;10292693;28;20281;-23
2022/01/09 06:17:25;;;;;;;1.47;0.80;;;;;;;18.98;52.60;95263.63;10328255;28;20034;-22
2022/01/09 06:22:26;;;;;;;1.83;0.90;;;;;;;19.02;52.36;95264.41;10301400;28;20824;-23
2022/01/09 06:27:26;;;;;;;2.20;1.20;;;;;;;19.04;52.43;95262.66;10292974;28;20035;-22
2022/01/09 06:32:27;;;;;;;1.67;0.85;;;;;;;19.05;52.43;95254.16;10293125;28;20089;-22
2022/01/09 06:37:27;;;;;;;0.93;0.60;;;;;;;19.06;52.40;95271.03;10292236;28;20042;-24
2022/01/09 06:42:27;;;;;;;1.80;0.87;;;;;;;19.05;52.34;95264.31;10293108;28;20122;-23
2022/01/09 06:47:28;;;;;;;2.22;0.82;;;;;;;19.05;52.55;95269.38;10292162;28;20042;-23
2022/01/09 06:52:28;;;;;;;1.30;0.70;;;;;;;19.09;52.45;95276.06;10292768;28;20041;-23
2022/01/09 06:57:29;;;;;;;3.63;0.80;;;;;;;19.02;52.67;95297.38;10292186;28;20031;-23
2022/01/09 07:02:29;;;;;;;5.45;1.00;;;;;;;19.08;52.42;95314.97;10292265;28;20046;-23
2022/01/09 07:07:30;;;;;;;3.70;0.80;;;;;;;19.09;52.31;95326.78;10291775;28;20550;-24
2022/01/09 07:12:30;;;;;;;1.13;0.65;;;;;;;19.06;52.46;95321.75;10292272;28;20493;-23
2022/01/09 07:17:31;;;;;;;1.33;0.65;;;;;;;19.08;52.37;95330.19;10327432;28;20088;-22
2022/01/09 07:22:32;;;;;;;1.90;1.10;;;;;;;19.06;52.49;95339.53;10297767;28;20058;-22
2022/01/09 07:27:33;;;;;;;2.22;0.90;;;;;;;19.00;52.54;95337.16;10291216;28;20138;-23
2022/01/09 07:32:36;;;;;;;1.85;0.60;;;;;;;19.06;52.40;95352.22;10291784;28;20027;-23
2022/01/09 07:37:36;;;;;;;0.82;0.63;;;;;;;19.06;52.31;95352.22;10291185;28;20293;-23
2022/01/09 07:42:37;;;;;;;0.85;0.65;;;;;;;19.06;52.33;95369.97;10291300;28;20475;-22
2022/01/09 07:47:38;;;;;;;1.38;0.55;;;;;;;19.02;52.41;95396.28;10290893;28;20497;-23
2022/01/09 07:52:38;;;;;;;1.45;0.70;;;;;;;19.03;52.49;95400.47;10290281;28;20035;-22
2022/01/09 07:57:39;;;;;;;1.73;0.80;;;;;;;19.07;52.29;95415.59;10290165;28;20034;-22
2022/01/09 08:02:40;;;;;;;2.93;0.80;;;;;;;18.98;52.40;95412.41;10290536;28;20045;-23
2022/01/09 08:07:42;;;;;;;1.33;0.80;;;;;;;19.04;52.44;95424.97;10289311;28;20513;-22
2022/01/09 08:12:42;;;;;;;1.52;0.70;;;;;;;19.01;52.66;95428.41;10289491;28;20037;-20
2022/01/09 08:17:47;;;;;;;1.23;0.60;;;;;;;19.02;52.54;95441.94;10325619;28;20113;-23
2022/01/09 08:22:48;;;;;;;4.43;0.77;;;;;;;18.97;52.66;95438.66;10294003;28;20395;-23
2022/01/09 08:27:48;;;;;;;2.42;0.75;;;;;;;18.95;53.14;95445.47;10288774;28;20042;-23
2022/01/09 08:32:52;;;;;;;1.50;0.70;;;;;;;19.00;52.70;95441.16;10287702;28;20257;-22
2022/01/09 08:37:52;;;;;;;8.82;1.30;;;;;;;18.98;52.62;95450.47;10295741;28;20043;-22
2022/01/09 08:42:55;;;;;;;3.27;0.80;;;;;;;18.98;52.53;95453.00;10321355;28;20440;-23
2022/01/09 08:47:56;;;;;;;1.67;0.90;;;;;;;19.02;51.90;95463.03;10326231;28;20038;-24
2022/01/09 08:52:56;;;;;;;2.07;0.97;;;;;;;19.03;51.65;95466.44;10325499;28;20034;-24
2022/01/09 08:57:59;;;;;;;4.27;0.87;;;;;;;18.99;52.32;95480.06;10323669;28;20473;-23
2022/01/09 09:03:00;;;;;;;3.10;0.95;;;;;;;18.98;52.07;95488.50;10288043;28;20037;-23
2022/01/09 09:08:02;;;;;;;4.40;1.40;;;;;;;19.01;50.48;95498.59;10287376;28;20126;-22
2022/01/09 09:13:02;;;;;;;3.05;0.80;;;;;;;19.08;50.02;95497.63;10310036;28;20080;-22
2022/01/09 09:18:03;;;;;;;6.67;1.50;;;;;;;19.10;49.82;95506.03;10298834;28;20133;-23
2022/01/09 09:23:04;;;;;;;6.53;0.90;;;;;;;19.05;51.55;95502.72;10289925;28;20034;-23
2022/01/09 09:28:04;;;;;;;2.05;0.80;;;;;;;19.07;51.71;95499.31;10286332;28;20288;-22
2022/01/09 09:33:05;;;;;;;6.93;1.55;;;;;;;18.95;52.10;95496.19;10286915;28;20035;-23
2022/01/09 09:38:06;;;;;;;5.38;1.30;;;;;;;18.94;52.29;95504.69;10294560;28;20108;-22
2022/01/09 09:43:06;;;;;;;3.85;1.30;;;;;;;18.93;51.97;95503.81;10306548;28;20086;-24
2022/01/09 09:48:07;;;;;;;9.23;2.15;;;;;;;18.91;52.65;95514.91;10312510;28;20030;-23
2022/01/09 09:53:07;;;;;;;8.45;2.10;;;;;;;18.90;52.69;95514.03;10307613;28;20053;-22
2022/01/09 09:58:07;;;;;;;21.37;4.87;;;;;;;18.57;46.18;95512.19;10328094;28;20043;-22
2022/01/09 10:03:08;;;;;;;16.20;4.40;;;;;;;18.71;49.78;95527.13;10294133;28;20035;-22
2022/01/09 10:08:15;;;;;;;7.50;2.20;;;;;;;18.88;50.31;95520.00;10293911;28;20041;-22
2022/01/09 10:13:18;;;;;;;7.18;2.90;;;;;;;18.90;50.70;95519.13;10294950;28;20118;-23
2022/01/09 10:18:39;;;;;;;4.68;2.30;;;;;;;18.89;50.96;95511.53;10334073;28;20054;-22
2022/01/09 10:24:17;;;;;;;6.03;2.22;;;;;;;18.90;51.14;95508.13;10293819;28;20557;-22
2022/01/09 10:29:19;;;;;;;9.40;2.40;;;;;;;18.88;51.16;95512.41;10293636;28;20054;-23
2022/01/09 10:34:20;;;;;;;5.55;1.92;;;;;;;18.90;51.16;95511.50;10293781;28;20485;-22
2022/01/09 10:39:34;;;;;;;5.77;2.07;;;;;;;18.90;51.40;95514.03;10293103;28;20035;-22
2022/01/09 10:44:39;;;;;;;5.15;2.15;;;;;;;18.87;51.39;95513.28;10293195;28;20046;-23
2022/01/09 10:49:42;;;;;;;4.95;1.77;;;;;;;18.86;51.35;95511.59;10292722;28;20639;-22
2022/01/09 10:54:46;;;;;;;4.82;1.75;;;;;;;18.82;51.54;95504.94;10292357;28;20496;-22
2022/01/09 10:59:47;;;;;;;5.00;2.22;;;;;;;18.88;51.18;95507.31;10292178;28;20031;-22
2022/01/09 11:04:48;;;;;;;7.60;2.22;;;;;;;18.86;51.25;95482.03;10291873;28;20157;-22
2022/01/09 11:09:50;;;;;;;6.30;2.53;;;;;;;18.95;51.31;95501.25;10301882;28;20129;-22
2022/01/09 11:14:52;;;;;;;6.03;2.80;;;;;;;18.89;51.43;95496.31;10323692;28;20058;-22
2022/01/09 11:19:53;;;;;;;5.18;2.60;;;;;;;18.89;51.29;95512.38;10311753;28;20069;-23
2022/01/09 11:25:11;;;;;;;5.28;2.83;;;;;;;18.89;50.94;95514.06;10316130;28;20572;-22
2022/01/09 11:30:20;;;;;;;6.22;2.75;;;;;;;18.88;51.11;95514.94;10291922;28;20042;-24
2022/01/09 11:35:43;;;;;;;5.15;2.90;;;;;;;18.91;51.06;95514.91;10292729;28;20039;-21
2022/01/09 11:40:43;;;;;;;9.13;4.32;;;;;;;18.87;50.90;95518.34;10299328;28;20109;-22
2022/01/09 11:46:01;;;;;;;8.27;4.43;;;;;;;18.92;50.69;95512.31;10322500;28;20400;-22
2022/01/09 11:51:04;;;;;;;8.10;3.97;;;;;;;18.93;50.64;95508.09;10309918;28;20031;-22
2022/01/09 11:56:04;;;;;;;9.43;4.70;;;;;;;18.99;51.01;95513.03;10290289;28;20086;-22
2022/01/09 12:01:06;;;;;;;7.97;4.53;;;;;;;19.03;51.03;95499.41;10289126;28;20106;-22
2022/01/09 12:06:10;;;;;;;9.05;4.35;;;;;;;18.99;51.21;95502.88;10287846;28;20494;-22
2022/01/09 12:11:11;;;;;;;8.85;4.10;;;;;;;18.99;51.32;95492.75;10289040;28;20049;-22
2022/01/09 12:16:48;;;;;;;9.10;4.97;;;;;;;18.93;51.38;95482.72;10313699;28;20481;-22
2022/01/09 12:21:49;;;;;;;;;;;;;;;18.97;51.81;95469.09;10292393;28;20494;-22
2022/01/09 12:26:50;;;;;;;8.65;5.13;;;;;;;18.94;52.18;95469.16;10311863;28;19914;-22
2022/01/09 12:31:50;;;;;;;7.23;4.10;;;;;;;18.98;52.16;95473.28;10316596;28;20034;-22
2022/01/09 12:36:54;;;;;;;7.00;4.43;;;;;;;18.97;52.61;95456.41;10296202;28;20054;-22
2022/01/09 12:41:55;;;;;;;7.63;4.28;;;;;;;18.93;52.79;95467.50;10287500;28;20052;-23
2022/01/09 12:46:55;;;;;;;8.57;4.30;;;;;;;18.93;53.06;95462.44;10287687;28;20068;-23
2022/01/09 12:52:00;;;;;;;7.93;3.80;;;;;;;18.95;53.20;95460.69;10294859;28;20300;-22
2022/01/09 12:57:02;;;;;;;6.90;4.35;;;;;;;18.92;53.76;95465.84;10326009;28;20331;-23
2022/01/09 13:02:10;;;;;;;7.20;4.90;;;;;;;18.95;53.66;95465.75;10298417;28;20030;-20
2022/01/09 13:07:14;;;;;;;7.43;4.30;;;;;;;18.90;53.89;95470.94;10317650;28;20038;-23
2022/01/09 13:12:17;;;;;;;10.82;4.50;;;;;;;18.96;53.24;95469.97;10306189;28;20104;-23
2022/01/09 13:17:19;;;;;;;8.85;4.53;;;;;;;18.93;53.89;95467.50;10320166;28;20062;-24
2022/01/09 13:22:21;;;;;;;10.13;4.40;;;;;;;19.04;52.95;95470.63;10295093;28;20062;-23
2022/01/09 13:27:22;;;;;;;7.93;4.20;;;;;;;19.04;53.47;95478.25;10320121;28;20130;-22
2022/01/09 13:32:23;;;;;;;8.60;4.43;;;;;;;19.12;53.59;95478.91;10287041;28;20031;-22
2022/01/09 13:37:23;;;;;;;12.15;4.30;;;;;;;19.11;53.79;95477.25;10303384;28;20038;-22
2022/01/09 13:42:26;;;;;;;8.50;4.03;;;;;;;18.87;54.02;95449.88;10319467;28;20050;-22
2022/01/09 13:47:27;;;;;;;26.25;4.15;;;;;;;19.09;53.87;95471.38;10313641;28;20300;-23
2022/01/09 13:52:35;;;;;;;13.18;4.78;;;;;;;19.08;54.01;95484.94;10313279;28;20041;-25
2022/01/09 13:57:55;;;;;;;8.45;4.32;;;;;;;19.08;54.24;95470.53;10320207;28;20030;-23
2022/01/09 14:02:58;;;;;;;8.70;4.18;;;;;;;19.13;54.05;95467.88;10321542;28;20452;-23
2022/01/09 14:07:58;;;;;;;9.73;4.38;;;;;;;19.16;54.51;95483.06;10312809;28;20117;-23
2022/01/09 14:12:59;;;;;;;18.63;4.30;;;;;;;19.19;54.37;95481.28;10319868;28;20057;-24
2022/01/09 14:17:59;;;;;;;9.50;3.78;;;;;;;19.13;54.32;95478.88;10322552;28;20031;-23
2022/01/09 14:23:09;;;;;;;12.07;4.35;;;;;;;19.17;54.01;95482.19;10319404;28;20034;-22
2022/01/09 14:28:12;;;;;;;6.38;3.80;;;;;;;19.03;51.30;95467.28;10311759;28;20113;-23
2022/01/09 14:33:13;;;;;;;7.18;2.70;;;;;;;18.97;47.17;95485.16;10318214;28;20026;-23
2022/01/09 14:38:20;;;;;;;7.25;2.25;;;;;;;18.95;46.47;95491.13;10323884;28;20517;-24
2022/01/09 14:43:23;;;;;;;7.55;2.60;;;;;;;18.95;45.47;95491.13;10326426;28;20038;-22
2022/01/09 14:48:26;;;;;;;7.60;2.25;;;;;;;18.89;45.06;95498.84;10323166;28;20038;-23
2022/01/09 14:53:27;;;;;;;9.52;2.65;;;;;;;18.77;44.17;95501.66;10323152;28;20038;-23
2022/01/09 14:58:27;;;;;;;3.40;2.33;;;;;;;18.74;43.64;95507.63;10319746;28;20522;-23
2022/01/09 15:03:28;;;;;;;5.53;1.80;;;;;;;18.70;42.94;95505.16;10316541;28;20038;-23
2022/01/09 15:08:28;;;;;;;7.95;2.20;;;;;;;19.00;45.04;95512.16;10311406;28;20031;-21
2022/01/09 15:13:29;;;;;;;5.35;1.70;;;;;;;19.14;46.66;95512.69;10309451;28;20577;-22
2022/01/09 15:18:30;;;;;;;5.30;2.03;;;;;;;19.14;47.56;95512.69;10317336;28;20096;-23
2022/01/09 15:23:30;;;;;;;5.05;2.10;;;;;;;19.16;47.52;95516.84;10328032;28;20034;-21
2022/01/09 15:28:30;;;;;;;4.53;1.53;;;;;;;19.08;48.48;95525.50;10315952;28;20045;-21
2022/01/09 15:33:31;;;;;;;3.60;1.23;;;;;;;19.05;48.85;95516.25;10329959;28;20018;-21
2022/01/09 15:38:31;;;;;;;3.93;1.50;;;;;;;19.05;49.00;95518.81;10321037;28;20119;-21
2022/01/09 15:43:33;;;;;;;4.55;1.88;;;;;;;19.01;49.40;95526.50;10317985;28;20034;-21
2022/01/09 15:48:33;;;;;;;2.95;1.42;;;;;;;19.00;49.52;95529.91;10328973;28;20038;-21
2022/01/09 15:53:34;;;;;;;4.25;1.50;;;;;;;19.10;49.68;95527.13;10328899;28;20116;-21
2022/01/09 15:58:34;;;;;;;7.13;1.98;;;;;;;19.16;49.98;95533.81;10323388;28;20069;-22
2022/01/09 16:03:35;;;;;;;6.97;1.77;;;;;;;19.29;49.81;95531.00;10328911;28;20031;-22
2022/01/09 16:08:35;;;;;;;4.60;2.08;;;;;;;19.29;49.89;95537.75;10318792;28;20129;-20
2022/01/09 16:13:37;;;;;;;3.78;1.67;;;;;;;19.23;50.38;95535.34;10318772;28;20050;-20
2022/01/09 16:18:37;;;;;;;7.40;2.33;;;;;;;19.20;49.36;95540.50;10323832;28;20042;-20
2022/01/09 16:23:38;;;;;;;4.17;2.20;;;;;;;19.15;48.69;95554.94;10324334;28;20430;-20
2022/01/09 16:28:38;;;;;;;3.07;2.07;;;;;;;19.15;49.35;95554.94;10305681;28;20522;-20
2022/01/09 16:33:39;;;;;;;8.85;2.72;;;;;;;19.13;49.96;95564.28;10332744;28;20034;-21
2022/01/09 16:38:41;;;;;;;7.55;1.92;;;;;;;19.07;50.36;95561.88;10326212;28;20041;-22
2022/01/09 16:43:42;;;;;;;4.35;1.75;;;;;;;19.07;50.57;95566.94;10320632;28;20401;-21
2022/01/09 16:48:42;;;;;;;4.68;1.73;;;;;;;19.06;50.84;95577.97;10290309;28;20036;-20
2022/01/09 16:53:44;;;;;;;4.70;1.70;;;;;;;19.17;50.65;95578.59;10287207;28;20038;-21
2022/01/09 16:58:45;;;;;;;6.53;2.45;;;;;;;19.18;50.88;95582.81;10287218;28;20093;-20
2022/01/09 17:03:46;;;;;;;5.00;2.38;;;;;;;19.12;51.34;95566.00;10286954;28;20455;-21
2022/01/09 17:08:47;;;;;;;6.78;1.92;;;;;;;19.10;52.01;95570.25;10287898;28;20048;-21
2022/01/09 17:13:49;;;;;;;10.35;2.50;;;;;;;19.09;52.30;95570.31;10294344;28;20035;-21
2022/01/09 17:18:49;;;;;;;23.45;2.97;;;;;;;19.24;51.72;95575.09;10323185;28;20039;-23
2022/01/09 17:23:50;;;;;;;8.07;2.58;;;;;;;19.29;51.36;95573.28;10286220;28;20042;-21
2022/01/09 17:28:50;;;;;;;7.10;1.98;;;;;;;19.33;51.30;95574.91;10285189;28;20035;-21
2022/01/09 17:33:52;;;;;;;8.40;1.63;;;;;;;19.37;51.23;95576.50;10285063;28;20046;-21
2022/01/09 17:38:52;;;;;;;3.40;1.83;;;;;;;19.48;50.89;95584.69;10284915;28;20035;-21
2022/01/09 17:43:53;;;;;;;8.03;2.53;;;;;;;19.49;50.69;95578.78;10285311;28;20065;-21
2022/01/09 17:48:55;;;;;;;4.57;2.15;;;;;;;19.41;50.59;95566.25;10304678;28;20038;-21
2022/01/09 17:53:57;;;;;;;13.63;5.03;;;;;;;19.38;51.13;95588.31;10316756;28;20046;-20
2022/01/09 17:58:59;;;;;;;13.95;6.68;;;;;;;19.45;51.31;95584.78;10303960;28;20460;-21
2022/01/09 18:03:59;;;;;;;13.18;5.88;;;;;;;19.47;51.50;95590.66;10288506;28;20033;-21
2022/01/09 18:09:00;;;;;;;12.55;6.07;;;;;;;19.52;51.51;95599.00;10293569;28;20043;-21
2022/01/09 18:14:00;;;;;;;13.70;5.90;;;;;;;19.50;51.89;95608.38;10300697;28;20477;-21
2022/01/09 18:19:02;;;;;;;15.82;6.40;;;;;;;19.46;52.24;95606.75;10321704;28;20298;-21
2022/01/09 18:24:03;;;;;;;16.10;5.85;;;;;;;19.45;52.71;95615.25;10293909;28;20500;-21
2022/01/09 18:29:03;;;;;;;18.13;5.78;;;;;;;19.54;52.63;95620.97;10293261;28;20038;-21
2022/01/09 18:34:03;;;;;;;10.97;4.17;;;;;;;19.55;52.25;95609.09;10293374;28;20035;-21
2022/01/09 18:39:04;;;;;;;11.27;4.97;;;;;;;19.56;52.31;95626.00;10292908;28;20053;-21
2022/01/09 18:44:04;;;;;;;11.80;5.13;;;;;;;19.51;52.64;95633.69;10292948;28;20309;-21
2022/01/09 18:49:05;;;;;;;10.70;4.25;;;;;;;19.44;52.67;95618.66;10292803;28;20026;-21
2022/01/09 18:54:05;;;;;;;10.32;5.07;;;;;;;19.37;52.32;95612.88;10321684;28;20045;-21
2022/01/09 18:59:06;;;;;;;15.87;5.13;;;;;;;19.57;52.63;95650.50;10292743;28;20038;-21
2022/01/09 19:04:08;;;;;;;11.23;4.35;;;;;;;19.48;52.89;95651.56;10307959;28;20031;-21
2022/01/09 19:09:08;;;;;;;10.63;4.40;;;;;;;19.53;52.49;95659.06;10295337;28;20121;-21
2022/01/09 19:14:09;;;;;;;9.23;3.93;;;;;;;19.53;52.55;95661.59;10299160;28;20057;-21
2022/01/09 19:19:09;;;;;;;11.68;4.40;;;;;;;19.58;52.44;95667.44;10321907;28;20027;-21
2022/01/09 19:24:09;;;;;;;8.87;4.20;;;;;;;19.60;52.41;95671.59;10295513;28;20038;-21
2022/01/09 19:29:10;;;;;;;9.03;3.67;;;;;;;19.58;52.09;95672.50;10308530;28;20074;-21
2022/01/09 19:34:10;;;;;;;6.80;3.20;;;;;;;19.58;52.14;95680.13;10286594;28;20030;-21
2022/01/09 19:39:11;;;;;;;8.37;4.00;;;;;;;19.61;52.12;95680.06;10286482;28;20292;-20
2022/01/09 19:44:11;;;;;;;12.75;3.90;;;;;;;19.46;52.49;95672.75;10298175;28;20035;-21
2022/01/09 19:49:11;;;;;;;8.77;3.92;;;;;;;19.57;52.09;95691.13;10320770;28;20125;-21
2022/01/09 19:54:12;;;;;;;6.87;3.53;;;;;;;19.50;52.49;95695.50;10318775;28;20112;-21
2022/01/09 19:59:13;;;;;;;7.28;3.88;;;;;;;19.50;52.63;95695.50;10315554;28;20050;-21
2022/01/09 20:04:13;;;;;;;9.68;4.07;;;;;;;19.32;52.49;95659.50;10318097;28;20425;-21
2022/01/09 20:09:14;;;;;;;7.47;3.37;;;;;;;19.58;52.68;95695.38;10285673;28;20577;-21
2022/01/09 20:14:15;;;;;;;7.65;3.00;;;;;;;19.53;52.19;95695.47;10294937;28;20459;-21
2022/01/09 20:19:17;;;;;;;7.00;3.22;;;;;;;19.51;52.35;95701.44;10318655;28;20035;-21
2022/01/09 20:24:19;;;;;;;6.10;3.17;;;;;;;19.44;52.49;95705.75;10285044;28;20046;-21
2022/01/09 20:29:20;;;;;;;7.70;3.85;;;;;;;19.47;52.50;95725.19;10283143;28;20062;-21
2022/01/09 20:34:21;;;;;;;4.78;2.90;;;;;;;19.55;52.54;95733.50;10290873;28;20089;-21
2022/01/09 20:39:21;;;;;;;5.32;3.22;;;;;;;19.52;52.19;95743.72;10312665;28;20030;-21
2022/01/09 20:44:23;;;;;;;5.18;3.08;;;;;;;19.53;52.29;95740.31;10285851;28;20026;-21
2022/01/09 20:49:23;;;;;;;8.00;3.25;;;;;;;19.43;52.52;95746.44;10283977;28;20512;-21
2022/01/09 20:54:24;;;;;;;5.10;2.70;;;;;;;19.44;52.65;95745.56;10323950;28;20026;-21
2022/01/09 20:59:24;;;;;;;8.35;3.75;;;;;;;19.49;52.50;95753.94;10316832;28;20050;-22
2022/01/09 21:04:24;;;;;;;7.03;3.03;;;;;;;19.55;52.32;95761.41;10306642;28;20038;-21
2022/01/09 21:09:28;;;;;;;8.70;3.37;;;;;;;19.55;52.26;95764.81;10310091;28;20201;-21
2022/01/09 21:14:29;;;;;;;7.90;3.42;;;;;;;19.58;52.54;95771.53;10304177;28;20300;-21
2022/01/09 21:19:33;;;;;;;7.05;2.85;;;;;;;19.56;52.70;95758.84;10318361;28;20117;-21
2022/01/09 21:24:34;;;;;;;7.00;3.00;;;;;;;19.50;52.99;95766.56;10286995;28;20039;-21
2022/01/09 21:29:34;;;;;;;5.90;2.72;;;;;;;19.46;52.70;95769.22;10287395;28;20039;-21
2022/01/09 21:34:35;;;;;;;4.77;2.90;;;;;;;19.43;52.41;95767.56;10287367;28;20046;-21
2022/01/09 21:39:35;;;;;;;8.53;3.10;;;;;;;19.45;52.67;95785.31;10289699;28;20027;-21
2022/01/09 21:44:37;;;;;;;5.37;3.10;;;;;;;19.30;52.80;95770.34;10295579;28;20486;-21
2022/01/09 21:49:40;;;;;;;7.47;3.75;;;;;;;19.43;52.75;95795.47;10296814;28;20337;-21
2022/01/09 21:54:41;;;;;;;11.57;2.90;;;;;;;19.40;53.04;95805.69;10335193;28;20473;-21
2022/01/09 21:59:41;;;;;;;12.00;3.07;;;;;;;19.39;53.08;95808.25;10327333;28;20029;-22
2022/01/09 22:04:41;;;;;;;11.73;3.58;;;;;;;19.36;53.25;95821.84;10323818;28;20061;-25
2022/01/09 22:09:42;;;;;;;5.43;2.28;;;;;;;19.32;53.12;95819.38;10292813;28;20031;-21
2022/01/09 22:14:43;;;;;;;7.30;2.88;;;;;;;19.33;53.14;95826.16;10306494;28;20113;-21
2022/01/09 22:19:43;;;;;;;6.85;3.35;;;;;;;19.35;53.02;95834.56;10323735;28;20038;-21
2022/01/09 22:24:46;;;;;;;10.07;2.65;;;;;;;19.32;53.24;95827.84;10294241;28;20047;-21
2022/01/09 22:29:47;;;;;;;7.03;2.90;;;;;;;19.32;53.21;95827.84;10293885;28;20038;-21
2022/01/09 22:34:48;;;;;;;6.90;2.42;;;;;;;19.31;52.92;95828.72;10294277;28;20066;-21
2022/01/09 22:39:48;;;;;;;6.00;2.72;;;;;;;19.35;53.04;95843.00;10292950;28;20125;-21
2022/01/09 22:44:51;;;;;;;4.05;2.40;;;;;;;19.22;53.03;95833.94;10293376;28;20470;-21
2022/01/09 22:49:51;;;;;;;5.70;3.10;;;;;;;19.35;52.95;95858.22;10296408;28;20042;-21
2022/01/09 22:54:52;;;;;;;7.20;2.90;;;;;;;19.27;53.21;95854.16;10332558;28;20380;-21
2022/01/09 22:59:52;;;;;;;4.40;2.30;;;;;;;19.33;52.92;95875.19;10306596;28;20043;-21
2022/01/09 23:04:53;;;;;;;6.65;2.80;;;;;;;19.30;53.23;95875.25;10292449;28;20489;-21
2022/01/09 23:09:55;;;;;;;4.43;2.80;;;;;;;19.32;53.10;95878.59;10292518;28;20035;-21
2022/01/09 23:14:56;;;;;;;5.95;2.72;;;;;;;19.34;53.07;95887.00;10306150;28;20031;-21
2022/01/09 23:19:56;;;;;;;6.47;2.20;;;;;;;19.24;53.09;95877.06;10319520;28;20516;-21